createdAt,value
2018-06-03T00:02:35.827Z,102043.25
2018-06-03T00:05:37.906Z,102043.83
2018-06-03T00:08:40.127Z,102045.75
2018-06-03T00:11:43.452Z,102042.89
2018-06-03T00:14:45.375Z,102041.21
2018-06-03T00:17:47.493Z,102041.88
2018-06-03T00:21:01.120Z,102040.88
2018-06-03T00:24:03.201Z,102046.55
2018-06-03T00:27:05.285Z,102047.66
2018-06-03T00:30:07.354Z,102050.80
2018-06-03T00:33:09.422Z,102057.65
2018-06-03T00:36:23.012Z,102059.46
2018-06-03T00:39:25.107Z,102058.94
2018-06-03T00:42:27.068Z,102059.70
2018-06-03T00:45:29.165Z,102055.15
2018-06-03T00:48:33.213Z,102052.81
2018-06-03T00:51:35.219Z,102054.85
2018-06-03T00:54:37.315Z,102053.94
2018-06-03T00:57:39.364Z,102049.21
2018-06-03T01:00:41.440Z,102045.59
2018-06-03T01:03:43.516Z,102045.39
2018-06-03T01:06:45.564Z,102042.52
2018-06-03T01:09:47.639Z,102043.84
2018-06-03T01:12:49.665Z,102041.49
2018-06-03T01:15:51.611Z,102042.34
2018-06-03T01:18:53.689Z,102036.23
2018-06-03T01:21:56.731Z,102041.31
2018-06-03T01:24:58.828Z,102044.10
2018-06-03T01:28:00.884Z,102039.43
2018-06-03T01:31:04.087Z,102036.96
2018-06-03T01:34:06.149Z,102038.47
2018-06-03T01:37:08.313Z,102037.67
2018-06-03T01:40:10.376Z,102041.07
2018-06-03T01:43:12.456Z,102033.50
2018-06-03T01:46:14.525Z,102030.88
2018-06-03T01:49:16.583Z,102027.79
2018-06-03T01:52:18.661Z,102028.47
2018-06-03T01:55:20.859Z,102024.08
2018-06-03T01:58:22.862Z,102021.35
2018-06-03T02:01:24.946Z,102012.84
2018-06-03T02:04:27.032Z,102015.59
2018-06-03T02:07:29.100Z,102015.75
2018-06-03T02:10:31.148Z,102007.37
2018-06-03T02:13:34.672Z,102008.89
2018-06-03T02:16:36.637Z,101998.60
2018-06-03T02:19:38.679Z,102001.86
2018-06-03T02:22:40.771Z,102004.51
2018-06-03T02:25:42.857Z,101999.63
2018-06-03T02:28:44.921Z,102000.43
2018-06-03T02:31:46.990Z,102003.79
2018-06-03T02:34:49.040Z,102008.22
2018-06-03T02:37:51.121Z,102004.27
2018-06-03T02:40:53.186Z,102009.80
2018-06-03T02:43:55.253Z,102006.20
2018-06-03T02:46:57.332Z,102010.06
2018-06-03T02:49:59.362Z,102010.32
2018-06-03T02:53:01.353Z,102008.74
2018-06-03T02:56:04.687Z,102005.86
2018-06-03T02:59:06.732Z,101999.02
2018-06-03T03:02:09.436Z,102003.91
2018-06-03T03:05:11.592Z,101999.85
2018-06-03T03:08:13.625Z,101996.67
2018-06-03T03:11:15.608Z,101994.27
2018-06-03T03:14:17.693Z,101996.24
2018-06-03T03:17:19.751Z,101996.03
2018-06-03T03:20:21.832Z,101996.43
2018-06-03T03:23:23.875Z,101996.27
2018-06-03T03:26:25.937Z,101987.84
2018-06-03T03:29:27.902Z,101994.22
2018-06-03T03:32:30.005Z,101994.50
2018-06-03T03:35:32.054Z,101997.33
2018-06-03T03:38:35.236Z,102003.24
2018-06-03T03:41:37.368Z,102004.11
2018-06-03T03:44:40.431Z,102005.76
2018-06-03T03:47:42.483Z,102011.52
2018-06-03T03:50:44.573Z,102012.64
2018-06-03T03:53:46.614Z,102012.16
2018-06-03T03:56:48.685Z,102009.33
2018-06-03T03:59:50.762Z,102015.54
2018-06-03T04:02:52.883Z,102020.83
2018-06-03T04:05:54.918Z,102024.48
2018-06-03T04:08:56.960Z,102027.33
2018-06-03T04:11:59.060Z,102036.47
2018-06-03T04:15:01.083Z,102037.30
2018-06-03T04:18:03.876Z,102042.11
2018-06-03T04:21:06.008Z,102040.38
2018-06-03T04:24:09.076Z,102038.79
2018-06-03T04:27:11.631Z,102038.28
2018-06-03T04:30:13.724Z,102047.99
2018-06-03T04:33:16.238Z,102049.90
2018-06-03T04:36:18.348Z,102051.84
2018-06-03T04:39:20.408Z,102051.69
2018-06-03T04:42:22.472Z,102057.15
2018-06-03T04:45:24.496Z,102059.74
2018-06-03T04:48:26.691Z,102060.41
2018-06-03T04:51:29.002Z,102056.31
2018-06-03T04:54:31.385Z,102057.64
2018-06-03T04:57:34.672Z,102056.86
2018-06-03T05:00:36.791Z,102059.40
2018-06-03T05:03:38.807Z,102060.27
2018-06-03T05:06:40.975Z,102061.75
2018-06-03T05:09:42.964Z,102059.64
2018-06-03T05:12:46.030Z,102056.91
2018-06-03T05:15:47.985Z,102052.94
2018-06-03T05:18:49.972Z,102055.83
2018-06-03T05:21:52.062Z,102056.16
2018-06-03T05:24:54.109Z,102057.42
2018-06-03T05:27:56.176Z,102055.67
2018-06-03T05:30:58.252Z,102055.91
2018-06-03T05:34:00.312Z,102056.00
2018-06-03T05:37:02.395Z,102054.52
2018-06-03T05:40:04.508Z,102055.27
2018-06-03T05:43:06.643Z,102055.30
2018-06-03T05:46:08.696Z,102051.88
2018-06-03T05:49:10.629Z,102046.97
2018-06-03T05:52:12.641Z,102051.15
2018-06-03T05:55:14.722Z,102047.32
2018-06-03T05:58:16.755Z,102048.59
2018-06-03T06:01:18.862Z,102048.72
2018-06-03T06:04:21.030Z,102049.13
2018-06-03T06:07:23.063Z,102046.43
2018-06-03T06:10:25.163Z,102049.12
2018-06-03T06:13:27.315Z,102051.15
2018-06-03T06:16:29.327Z,102051.02
2018-06-03T06:19:31.391Z,102050.04
2018-06-03T06:22:33.520Z,102053.61
2018-06-03T06:25:36.320Z,102053.18
2018-06-03T06:28:38.383Z,102052.49
2018-06-03T06:31:40.513Z,102048.26
2018-06-03T06:34:42.632Z,102046.29
2018-06-03T06:37:44.668Z,102043.82
2018-06-03T06:40:46.808Z,102048.46
2018-06-03T06:43:48.831Z,102054.43
2018-06-03T06:46:51.351Z,102059.38
2018-06-03T06:49:53.374Z,102061.00
2018-06-03T06:52:55.448Z,102066.68
2018-06-03T06:55:58.531Z,102067.68
2018-06-03T06:59:00.631Z,102058.91
2018-06-03T07:02:02.711Z,102057.23
2018-06-03T07:05:05.428Z,102057.87
2018-06-03T07:08:07.427Z,102061.73
2018-06-03T07:11:09.561Z,102057.68
2018-06-03T07:14:11.542Z,102058.85
2018-06-03T07:17:13.689Z,102056.19
2018-06-03T07:20:15.803Z,102053.63
2018-06-03T07:23:17.915Z,102053.19
2018-06-03T07:26:19.957Z,102054.18
2018-06-03T07:29:22.013Z,102055.23
2018-06-03T07:32:24.057Z,102050.84
2018-06-03T07:35:26.143Z,102046.96
2018-06-03T07:38:28.216Z,102042.95
2018-06-03T07:41:30.305Z,102039.46
2018-06-03T07:44:32.364Z,102036.61
2018-06-03T07:47:35.143Z,102040.78
2018-06-03T07:50:37.217Z,102039.98
2018-06-03T07:53:39.296Z,102039.58
2018-06-03T07:56:41.364Z,102039.33
2018-06-03T07:59:43.404Z,102039.38
2018-06-03T08:02:45.489Z,102037.18
2018-06-03T08:05:47.547Z,102041.72
2018-06-03T08:08:49.615Z,102032.54
2018-06-03T08:11:51.687Z,102026.33
2018-06-03T08:14:53.763Z,102014.20
2018-06-03T08:17:55.815Z,102018.27
2018-06-03T08:20:57.887Z,102015.96
2018-06-03T08:24:00.315Z,102016.83
2018-06-03T08:27:02.346Z,102022.17
2018-06-03T08:30:05.547Z,102024.34
2018-06-03T08:33:07.593Z,102021.31
2018-06-03T08:36:09.713Z,102016.07
2018-06-03T08:39:11.904Z,102011.17
2018-06-03T08:42:13.915Z,102010.38
2018-06-03T08:45:16.095Z,102008.00
2018-06-03T08:48:18.258Z,102002.67
2018-06-03T08:51:20.309Z,102002.15
2018-06-03T08:54:22.378Z,101991.79
2018-06-03T08:57:25.379Z,101994.92
2018-06-03T09:00:27.390Z,101991.26
2018-06-03T09:03:29.399Z,101985.58
2018-06-03T09:06:31.523Z,101987.48
2018-06-03T09:09:33.667Z,101986.43
2018-06-03T09:12:36.747Z,101979.69
2018-06-03T09:15:38.799Z,101975.46
2018-06-03T09:18:40.875Z,101962.91
2018-06-03T09:21:43.916Z,101960.06
2018-06-03T09:24:45.953Z,101958.02
2018-06-03T09:27:47.925Z,101958.77
2018-06-03T09:30:54.566Z,101956.78
2018-06-03T09:33:56.640Z,101956.27
2018-06-03T09:36:58.776Z,101952.14
2018-06-03T09:40:00.915Z,101953.25
2018-06-03T09:43:02.993Z,101949.38
2018-06-03T09:46:05.034Z,101955.05
2018-06-03T09:49:06.974Z,101950.63
2018-06-03T09:52:09.052Z,101940.71
2018-06-03T09:55:11.136Z,101943.57
2018-06-03T09:58:13.208Z,101936.64
2018-06-03T10:01:15.214Z,101941.90
2018-06-03T10:04:17.759Z,101938.46
2018-06-03T10:07:19.816Z,101935.72
2018-06-03T10:10:21.884Z,101924.57
2018-06-03T10:13:23.984Z,101922.06
2018-06-03T10:16:26.146Z,101918.18
2018-06-03T10:19:28.217Z,101920.99
2018-06-03T10:22:31.291Z,101920.11
2018-06-03T10:25:33.344Z,101921.18
2018-06-03T10:28:35.353Z,101927.26
2018-06-03T10:31:37.380Z,101921.20
2018-06-03T10:34:39.316Z,101918.96
2018-06-03T10:37:41.436Z,101913.17
2018-06-03T10:40:43.507Z,101910.50
2018-06-03T10:43:45.589Z,101903.71
2018-06-03T10:46:47.655Z,101903.54
2018-06-03T10:49:49.909Z,101901.44
2018-06-03T10:52:52.284Z,101905.86
2018-06-03T10:55:54.352Z,101907.00
2018-06-03T10:58:56.930Z,101905.94
2018-06-03T11:01:59.002Z,101895.32
2018-06-03T11:05:01.035Z,101901.44
2018-06-03T11:08:03.104Z,101898.77
2018-06-03T11:11:05.208Z,101901.12
2018-06-03T11:14:07.400Z,101895.80
2018-06-03T11:17:09.470Z,101895.35
2018-06-03T11:20:11.541Z,101894.84
2018-06-03T11:23:13.697Z,101888.97
2018-06-03T11:26:16.447Z,101884.06
2018-06-03T11:29:18.568Z,101876.83
2018-06-03T11:32:20.767Z,101873.55
2018-06-03T11:35:22.919Z,101873.78
2018-06-03T11:38:25.080Z,101875.07
2018-06-03T11:41:27.261Z,101876.79
2018-06-03T11:44:30.931Z,101869.90
2018-06-03T11:47:32.980Z,101862.57
2018-06-03T11:50:34.988Z,101856.80
2018-06-03T11:53:36.981Z,101856.99
2018-06-03T11:56:50.561Z,101850.04
2018-06-03T11:59:52.557Z,101846.18
2018-06-03T12:02:54.809Z,101838.55
2018-06-03T12:05:57.207Z,101836.46
2018-06-03T12:08:59.180Z,101829.69
2018-06-03T12:12:03.342Z,101827.85
2018-06-03T12:15:05.329Z,101825.14
2018-06-03T12:18:07.407Z,101821.43
2018-06-03T12:21:09.451Z,101814.64
2018-06-03T12:24:11.837Z,101808.88
2018-06-03T12:27:13.838Z,101800.17
2018-06-03T12:30:15.816Z,101796.03
2018-06-03T12:33:17.832Z,101794.72
2018-06-03T12:36:19.911Z,101795.86
2018-06-03T12:39:21.985Z,101785.92
2018-06-03T12:42:24.027Z,101784.71
2018-06-03T12:45:26.004Z,101775.53
2018-06-03T12:48:28.083Z,101773.63
2018-06-03T12:51:30.955Z,101770.38
2018-06-03T12:54:33.108Z,101770.08
2018-06-03T12:57:36.053Z,101767.86
2018-06-03T13:00:38.136Z,101763.25
2018-06-03T13:03:40.080Z,101754.17
2018-06-03T13:06:42.147Z,101759.64
2018-06-03T13:09:44.425Z,101750.12
2018-06-03T13:12:46.553Z,101755.11
2018-06-03T13:15:48.895Z,101749.52
2018-06-03T13:18:51.053Z,101740.10
2018-06-03T13:21:53.284Z,101737.99
2018-06-03T13:24:56.386Z,101727.59
2018-06-03T13:27:58.463Z,101724.95
2018-06-03T13:31:01.275Z,101723.04
2018-06-03T13:34:04.186Z,101719.34
2018-06-03T13:37:09.813Z,101712.19
2018-06-03T13:40:11.943Z,101709.45
2018-06-03T13:43:14.046Z,101708.78
2018-06-03T13:46:16.033Z,101702.22
2018-06-03T13:49:18.084Z,101699.46
2018-06-03T13:52:20.175Z,101692.27
2018-06-03T13:55:23.250Z,101684.51
2018-06-03T13:58:25.223Z,101680.19
2018-06-03T14:01:27.305Z,101680.95
2018-06-03T14:04:29.472Z,101675.88
2018-06-03T14:07:31.634Z,101666.41
2018-06-03T14:10:33.579Z,101670.69
2018-06-03T14:13:35.619Z,101664.04
2018-06-03T14:16:37.726Z,101663.93
2018-06-03T14:19:40.812Z,101662.12
2018-06-03T14:22:42.914Z,101652.72
2018-06-03T14:25:46.001Z,101651.99
2018-06-03T14:28:48.271Z,101648.08
2018-06-03T14:31:50.539Z,101645.84
2018-06-03T14:34:52.528Z,101639.77
2018-06-03T14:37:54.651Z,101644.36
2018-06-03T14:40:56.655Z,101640.06
2018-06-03T14:43:59.087Z,101635.64
2018-06-03T14:47:01.212Z,101629.62
2018-06-03T14:50:03.231Z,101628.27
2018-06-03T14:53:05.265Z,101624.06
2018-06-03T14:56:07.411Z,101622.67
2018-06-03T14:59:09.403Z,101618.08
2018-06-03T15:02:12.212Z,101616.79
2018-06-03T15:05:14.245Z,101611.83
2018-06-03T15:08:17.347Z,101612.45
2018-06-03T15:11:19.400Z,101610.65
2018-06-03T15:14:21.528Z,101603.62
2018-06-03T15:17:23.682Z,101598.56
2018-06-03T15:20:25.990Z,101599.03
2018-06-03T15:23:28.195Z,101593.36
2018-06-03T15:26:31.390Z,101592.09
2018-06-03T15:29:33.476Z,101587.00
2018-06-03T15:32:35.596Z,101583.17
2018-06-03T15:35:37.679Z,101579.35
2018-06-03T15:38:39.712Z,101579.74
2018-06-03T15:41:41.783Z,101577.38
2018-06-03T15:44:43.856Z,101574.19
2018-06-03T15:47:45.955Z,101573.21
2018-06-03T15:50:48.103Z,101567.97
2018-06-03T15:53:50.147Z,101559.85
2018-06-03T15:56:52.262Z,101561.17
2018-06-03T15:59:54.246Z,101565.56
2018-06-03T16:02:56.424Z,101564.44
2018-06-03T16:05:58.430Z,101557.89
2018-06-03T16:09:01.048Z,101554.33
2018-06-03T16:12:03.098Z,101547.47
2018-06-03T16:15:05.184Z,101547.84
2018-06-03T16:18:07.258Z,101543.16
2018-06-03T16:21:09.328Z,101544.45
2018-06-03T16:24:11.409Z,101544.90
2018-06-03T16:27:13.469Z,101547.80
2018-06-03T16:30:16.936Z,101544.19
2018-06-03T16:33:19.062Z,101546.38
2018-06-03T16:36:21.012Z,101543.74
2018-06-03T16:39:23.145Z,101542.27
2018-06-03T16:42:25.249Z,101538.18
2018-06-03T16:45:27.282Z,101534.56
2018-06-03T16:48:29.407Z,101531.80
2018-06-03T16:51:32.494Z,101526.95
2018-06-03T16:54:34.517Z,101523.97
2018-06-03T16:57:37.624Z,101520.82
2018-06-03T17:00:39.679Z,101519.57
2018-06-03T17:03:41.729Z,101520.22
2018-06-03T17:06:43.828Z,101524.29
2018-06-03T17:09:45.861Z,101521.40
2018-06-03T17:12:47.964Z,101517.58
2018-06-03T17:15:50.364Z,101514.37
2018-06-03T17:18:52.417Z,101510.63
2018-06-03T17:21:55.482Z,101507.68
2018-06-03T17:24:57.558Z,101509.95
2018-06-03T17:27:59.595Z,101513.01
2018-06-03T17:31:02.743Z,101512.39
2018-06-03T17:34:04.933Z,101512.81
2018-06-03T17:37:07.059Z,101507.62
2018-06-03T17:40:09.219Z,101502.82
2018-06-03T17:43:11.299Z,101499.11
2018-06-03T17:46:13.375Z,101501.74
2018-06-03T17:49:15.516Z,101500.75
2018-06-03T17:52:17.606Z,101496.38
2018-06-03T17:55:19.684Z,101492.50
2018-06-03T17:58:21.915Z,101494.46
2018-06-03T18:01:24.000Z,101495.06
2018-06-03T18:04:26.073Z,101500.33
2018-06-03T18:07:28.204Z,101499.08
2018-06-03T18:10:30.211Z,101497.38
2018-06-03T18:13:32.955Z,101501.00
2018-06-03T18:16:35.091Z,101502.30
2018-06-03T18:19:38.125Z,101499.11
2018-06-03T18:22:40.216Z,101505.90
2018-06-03T18:25:42.332Z,101505.37
2018-06-03T18:28:44.435Z,101501.20
2018-06-03T18:31:46.859Z,101499.92
2018-06-03T18:34:48.926Z,101498.45
2018-06-03T18:37:51.067Z,101502.46
2018-06-03T18:40:53.188Z,101499.41
2018-06-03T18:43:55.284Z,101490.76
2018-06-03T18:46:57.391Z,101492.10
2018-06-03T18:49:59.456Z,101489.69
2018-06-03T18:53:02.343Z,101489.36
2018-06-03T18:56:04.441Z,101486.12
2018-06-03T18:59:06.630Z,101487.15
2018-06-03T19:02:09.688Z,101486.64
2018-06-03T19:05:11.848Z,101490.59
2018-06-03T19:08:13.922Z,101489.55
2018-06-03T19:11:16.008Z,101482.46
2018-06-03T19:14:18.051Z,101486.78
2018-06-03T19:17:20.126Z,101491.16
2018-06-03T19:20:22.205Z,101482.97
2018-06-03T19:23:24.379Z,101484.80
2018-06-03T19:26:26.469Z,101489.67
2018-06-03T19:29:28.487Z,101491.79
2018-06-03T19:32:30.583Z,101489.95
2018-06-03T19:35:33.387Z,101488.09
2018-06-03T19:38:35.539Z,101488.31
2018-06-03T19:41:37.603Z,101486.24
2018-06-03T19:44:39.663Z,101487.13
2018-06-03T19:47:41.711Z,101490.42
2018-06-03T19:50:43.799Z,101488.72
2018-06-03T19:53:46.290Z,101494.04
2018-06-03T19:56:48.333Z,101489.07
2018-06-03T19:59:50.412Z,101494.29
2018-06-03T20:02:53.692Z,101496.68
2018-06-03T20:05:55.655Z,101502.85
2018-06-03T20:08:57.775Z,101503.18
2018-06-03T20:11:59.707Z,101501.25
2018-06-03T20:15:03.011Z,101504.23
2018-06-03T20:18:05.152Z,101500.07
2018-06-03T20:21:07.155Z,101500.09
2018-06-03T20:24:09.352Z,101491.35
2018-06-03T20:27:11.386Z,101495.19
2018-06-03T20:30:13.471Z,101496.37
2018-06-03T20:33:15.540Z,101495.58
2018-06-03T20:36:17.836Z,101503.54
2018-06-03T20:39:19.881Z,101499.74
2018-06-03T20:42:21.852Z,101500.61
2018-06-03T20:45:23.949Z,101500.17
2018-06-03T20:48:25.948Z,101497.11
2018-06-03T20:51:28.054Z,101504.82
2018-06-03T20:54:30.139Z,101502.69
2018-06-03T20:57:33.217Z,101499.34
2018-06-03T21:00:35.235Z,101503.98
2018-06-03T21:03:37.231Z,101506.47
2018-06-03T21:06:39.331Z,101516.48
2018-06-03T21:09:41.363Z,101514.07
2018-06-03T21:12:43.464Z,101512.27
2018-06-03T21:15:45.640Z,101512.33
2018-06-03T21:18:47.674Z,101507.16
2018-06-03T21:21:49.731Z,101512.97
2018-06-03T21:24:51.844Z,101513.62
2018-06-03T21:27:54.903Z,101516.55
2018-06-03T21:30:56.988Z,101510.51
2018-06-03T21:33:59.030Z,101513.64
2018-06-03T21:37:01.138Z,101514.51
2018-06-03T21:40:04.135Z,101514.92
2018-06-03T21:43:06.131Z,101517.72
2018-06-03T21:46:08.137Z,101520.27
2018-06-03T21:49:10.188Z,101517.17
2018-06-03T21:52:12.256Z,101522.00
2018-06-03T21:55:14.229Z,101511.64
2018-06-03T21:58:16.291Z,101516.66
2018-06-03T22:01:18.507Z,101513.51
2018-06-03T22:04:20.561Z,101512.42
2018-06-03T22:07:22.655Z,101518.51
2018-06-03T22:10:24.713Z,101524.44
2018-06-03T22:13:26.780Z,101517.27
2018-06-03T22:16:28.724Z,101514.84
2018-06-03T22:19:30.823Z,101518.33
2018-06-03T22:22:34.128Z,101514.88
2018-06-03T22:25:36.272Z,101517.04
2018-06-03T22:28:38.325Z,101511.53
2018-06-03T22:31:40.408Z,101504.39
2018-06-03T22:34:43.556Z,101501.68
2018-06-03T22:37:45.639Z,101502.84
2018-06-03T22:40:47.664Z,101499.97
2018-06-03T22:43:49.795Z,101502.16
2018-06-03T22:46:51.920Z,101498.43
2018-06-03T22:49:53.945Z,101498.84
2018-06-03T22:52:56.026Z,101491.30
2018-06-03T22:55:57.956Z,101489.35
2018-06-03T22:59:00.091Z,101485.96
2018-06-03T23:02:02.240Z,101486.91
2018-06-03T23:05:05.067Z,101490.59
2018-06-03T23:08:10.460Z,101492.96
2018-06-03T23:11:13.796Z,101496.22
2018-06-03T23:14:15.823Z,101493.91
2018-06-03T23:17:17.772Z,101495.19
2018-06-03T23:20:19.852Z,101495.01
2018-06-03T23:23:21.878Z,101493.16
2018-06-03T23:26:23.894Z,101490.54
2018-06-03T23:29:26.995Z,101487.25
2018-06-03T23:32:29.027Z,101493.26
2018-06-03T23:35:31.111Z,101491.67
2018-06-03T23:38:34.139Z,101481.99
2018-06-03T23:41:36.128Z,101479.29
2018-06-03T23:44:38.122Z,101476.99
2018-06-03T23:47:40.183Z,101468.94
2018-06-03T23:50:42.281Z,101469.96
2018-06-03T23:53:44.412Z,101463.50
2018-06-03T23:56:47.558Z,101467.03
2018-06-03T23:59:49.621Z,101462.05
